createdAt,value
2022-07-31T00:01:29.567Z,82.68
2022-07-31T00:04:28.359Z,83.13
2022-07-31T00:07:25.905Z,81.93
2022-07-31T00:10:22.916Z,81.97
2022-07-31T00:13:19.860Z,82.64
2022-07-31T00:16:36.968Z,79.95
2022-07-31T00:19:33.735Z,80.72
2022-07-31T00:22:30.638Z,81.08
2022-07-31T00:25:27.603Z,81.34
2022-07-31T00:28:24.922Z,82.10
2022-07-31T00:31:22.201Z,83.78
2022-07-31T00:34:19.886Z,83.47
2022-07-31T00:37:16.744Z,83.38
2022-07-31T00:40:15.682Z,83.47
2022-07-31T00:43:14.278Z,84.49
2022-07-31T00:46:14.442Z,84.67
2022-07-31T00:49:11.726Z,84.60
2022-07-31T00:52:10.057Z,84.26
2022-07-31T00:55:07.644Z,85.31
2022-07-31T00:58:04.657Z,82.82
2022-07-31T01:01:01.773Z,80.93
2022-07-31T01:03:58.766Z,84.46
2022-07-31T01:06:56.034Z,86.91
2022-07-31T01:09:53.747Z,87.09
2022-07-31T01:13:02.430Z,86.77
2022-07-31T01:16:00.294Z,86.31
2022-07-31T01:18:57.906Z,86.49
2022-07-31T01:22:00.821Z,86.09
2022-07-31T01:25:26.999Z,86.58
2022-07-31T01:28:41.594Z,86.88
2022-07-31T01:32:02.099Z,86.54
2022-07-31T01:35:03.186Z,85.97
2022-07-31T01:38:14.917Z,86.78
2022-07-31T01:41:12.846Z,87.23
2022-07-31T01:44:13.939Z,87.58
2022-07-31T01:47:15.216Z,87.19
2022-07-31T01:50:42.933Z,86.99
2022-07-31T01:53:32.813Z,86.42
2022-07-31T01:56:30.977Z,86.40
2022-07-31T01:59:28.543Z,85.59
2022-07-31T02:02:42.445Z,85.83
2022-07-31T02:05:41.343Z,86.09
2022-07-31T02:08:38.853Z,86.20
2022-07-31T02:11:54.379Z,86.69
2022-07-31T02:14:52.907Z,87.03
2022-07-31T02:17:49.871Z,86.77
2022-07-31T02:20:52.848Z,86.40
2022-07-31T02:23:49.861Z,87.07
2022-07-31T02:26:47.176Z,87.23
2022-07-31T02:29:45.316Z,87.16
2022-07-31T02:32:45.454Z,86.95
2022-07-31T02:35:45.606Z,87.23
2022-07-31T02:38:45.799Z,86.31
2022-07-31T02:41:43.551Z,85.33
2022-07-31T02:44:41.088Z,84.61
2022-07-31T02:47:38.930Z,84.98
2022-07-31T02:50:40.169Z,84.64
2022-07-31T02:53:38.175Z,84.53
2022-07-31T02:56:40.233Z,84.11
2022-07-31T02:59:38.306Z,84.27
2022-07-31T03:02:37.867Z,84.36
2022-07-31T03:05:35.985Z,85.70
2022-07-31T03:08:33.212Z,84.64
2022-07-31T03:11:33.634Z,86.09
2022-07-31T03:14:32.837Z,85.22
2022-07-31T03:17:40.825Z,85.34
2022-07-31T03:20:42.131Z,86.67
2022-07-31T03:23:40.046Z,85.30
2022-07-31T03:26:42.211Z,85.03
2022-07-31T03:29:43.478Z,85.01
2022-07-31T03:32:43.038Z,85.95
2022-07-31T03:35:42.417Z,86.57
2022-07-31T03:38:45.494Z,86.81
2022-07-31T03:41:53.755Z,87.46
2022-07-31T03:44:51.221Z,87.72
2022-07-31T03:47:48.192Z,87.36
2022-07-31T03:50:46.325Z,87.06
2022-07-31T03:53:44.074Z,87.21
2022-07-31T03:56:56.980Z,87.54
2022-07-31T03:59:57.700Z,87.67
2022-07-31T04:02:56.416Z,87.89
2022-07-31T04:06:15.883Z,87.62
2022-07-31T04:09:18.594Z,87.73
2022-07-31T04:12:18.992Z,87.94
2022-07-31T04:15:16.139Z,88.00
2022-07-31T04:18:13.262Z,88.02
2022-07-31T04:21:13.483Z,88.46
2022-07-31T04:24:16.767Z,88.03
2022-07-31T04:27:36.501Z,87.61
2022-07-31T04:30:46.239Z,87.68
2022-07-31T04:33:47.094Z,87.92
2022-07-31T04:36:47.257Z,87.84
2022-07-31T04:39:44.014Z,87.94
2022-07-31T04:42:41.020Z,88.21
2022-07-31T04:45:37.881Z,87.78
2022-07-31T04:48:35.846Z,87.41
2022-07-31T04:51:39.563Z,87.00
2022-07-31T04:54:38.571Z,86.60
2022-07-31T04:57:38.436Z,86.69
2022-07-31T05:00:36.581Z,86.27
2022-07-31T05:03:33.908Z,86.02
2022-07-31T05:06:47.060Z,85.11
2022-07-31T05:09:44.300Z,84.91
2022-07-31T05:12:42.044Z,85.33
2022-07-31T05:15:39.215Z,84.83
2022-07-31T05:18:36.287Z,85.29
2022-07-31T05:22:06.329Z,85.50
2022-07-31T05:25:27.203Z,85.68
2022-07-31T05:28:30.102Z,85.14
2022-07-31T05:31:29.037Z,85.84
2022-07-31T05:34:26.184Z,85.78
2022-07-31T05:37:25.336Z,85.42
2022-07-31T05:40:23.418Z,86.00
2022-07-31T05:43:38.925Z,86.57
2022-07-31T05:46:47.115Z,87.03
2022-07-31T05:49:44.996Z,87.08
2022-07-31T05:52:42.730Z,87.14
2022-07-31T05:56:09.133Z,87.57
2022-07-31T05:59:18.019Z,87.70
2022-07-31T06:02:16.437Z,87.49
2022-07-31T06:05:29.868Z,87.43
2022-07-31T06:08:27.359Z,87.66
2022-07-31T06:11:27.620Z,87.36
2022-07-31T06:14:25.139Z,86.83
2022-07-31T06:17:44.133Z,86.94
2022-07-31T06:20:57.921Z,86.65
2022-07-31T06:23:55.879Z,86.79
2022-07-31T06:27:00.708Z,85.52
2022-07-31T06:30:00.196Z,84.03
2022-07-31T06:32:57.142Z,84.22
2022-07-31T06:35:55.075Z,84.35
2022-07-31T06:39:12.128Z,83.80
2022-07-31T06:42:18.069Z,84.98
2022-07-31T06:45:51.112Z,83.63
2022-07-31T06:49:15.793Z,83.78
2022-07-31T06:52:12.848Z,83.50
2022-07-31T06:55:10.473Z,83.63
2022-07-31T06:58:07.872Z,83.44
2022-07-31T07:01:05.250Z,83.11
2022-07-31T07:04:02.274Z,83.25
2022-07-31T07:06:59.388Z,82.36
2022-07-31T07:09:56.250Z,81.61
2022-07-31T07:13:13.399Z,81.74
2022-07-31T07:16:11.819Z,81.02
2022-07-31T07:19:10.287Z,80.63
2022-07-31T07:22:07.303Z,80.25
2022-07-31T07:25:04.681Z,79.98
2022-07-31T07:28:01.927Z,78.38
2022-07-31T07:30:59.475Z,78.48
2022-07-31T07:33:57.223Z,77.83
2022-07-31T07:36:55.459Z,76.62
2022-07-31T07:39:57.452Z,76.01
2022-07-31T07:43:03.201Z,74.21
2022-07-31T07:46:01.108Z,73.25
2022-07-31T07:48:58.346Z,73.62
2022-07-31T07:52:05.175Z,72.28
2022-07-31T07:55:26.242Z,71.90
2022-07-31T07:58:52.091Z,69.88
2022-07-31T08:02:10.484Z,71.17
2022-07-31T08:05:08.370Z,69.90
2022-07-31T08:08:05.249Z,66.61
2022-07-31T08:11:34.367Z,66.34
2022-07-31T08:14:40.346Z,65.76
2022-07-31T08:17:58.785Z,66.00
2022-07-31T08:20:57.327Z,65.98
2022-07-31T08:23:54.031Z,65.56
2022-07-31T08:27:11.303Z,67.04
2022-07-31T08:30:10.113Z,65.63
2022-07-31T08:33:07.505Z,63.43
2022-07-31T08:36:09.161Z,64.84
2022-07-31T08:39:06.157Z,64.90
2022-07-31T08:42:36.808Z,63.92
2022-07-31T08:45:40.207Z,64.13
2022-07-31T08:48:56.932Z,64.30
2022-07-31T08:51:54.293Z,63.61
2022-07-31T08:55:56.153Z,65.81
2022-07-31T08:58:42.411Z,64.09
2022-07-31T09:01:39.046Z,64.14
2022-07-31T09:04:36.473Z,63.90
2022-07-31T09:07:33.331Z,63.37
2022-07-31T09:10:30.018Z,62.92
2022-07-31T09:13:27.223Z,63.68
2022-07-31T09:16:30.512Z,62.39
2022-07-31T09:19:54.209Z,63.23
2022-07-31T09:23:13.343Z,63.15
2022-07-31T09:26:14.361Z,64.01
2022-07-31T09:29:12.991Z,64.00
2022-07-31T09:32:18.268Z,63.70
2022-07-31T09:35:49.902Z,65.23
2022-07-31T09:38:47.396Z,66.59
2022-07-31T09:41:58.145Z,66.18
2022-07-31T09:45:23.127Z,65.27
2022-07-31T09:48:26.699Z,65.82
2022-07-31T09:51:26.093Z,65.99
2022-07-31T09:54:24.486Z,66.45
2022-07-31T09:57:30.220Z,66.19
2022-07-31T10:00:30.315Z,66.29
2022-07-31T10:03:28.239Z,66.61
2022-07-31T10:06:25.091Z,68.34
2022-07-31T10:09:22.661Z,68.07
2022-07-31T10:12:59.933Z,66.68
2022-07-31T10:15:57.624Z,66.51
2022-07-31T10:19:13.328Z,66.14
2022-07-31T10:22:33.906Z,63.51
2022-07-31T10:25:31.174Z,64.34
2022-07-31T10:28:29.827Z,66.07
2022-07-31T10:31:27.412Z,66.76
2022-07-31T10:34:24.450Z,65.40
2022-07-31T10:37:55.189Z,64.42
2022-07-31T10:41:32.326Z,64.45
2022-07-31T10:44:35.403Z,65.45
2022-07-31T10:48:00.959Z,66.08
2022-07-31T10:51:16.255Z,67.82
2022-07-31T10:54:49.040Z,66.94
2022-07-31T10:58:14.638Z,66.25
2022-07-31T11:01:20.835Z,68.40
2022-07-31T11:04:38.401Z,69.62
2022-07-31T11:08:05.420Z,70.04
2022-07-31T11:11:37.900Z,72.33
2022-07-31T11:14:55.384Z,72.99
2022-07-31T11:18:27.486Z,74.52
2022-07-31T11:21:40.826Z,74.98
2022-07-31T11:24:38.585Z,76.66
2022-07-31T11:27:35.406Z,76.91
2022-07-31T11:30:32.342Z,77.05
2022-07-31T11:33:43.942Z,76.88
2022-07-31T11:36:43.185Z,77.28
2022-07-31T11:39:40.932Z,77.55
2022-07-31T11:43:10.395Z,77.06
2022-07-31T11:46:08.464Z,78.15
2022-07-31T11:49:05.873Z,77.13
2022-07-31T11:52:04.783Z,75.45
2022-07-31T11:55:12.495Z,76.14
2022-07-31T11:58:11.407Z,75.42
2022-07-31T12:01:08.742Z,74.38
2022-07-31T12:04:08.769Z,72.58
2022-07-31T12:07:07.757Z,74.79
2022-07-31T12:10:05.995Z,73.50
2022-07-31T12:13:03.394Z,73.86
2022-07-31T12:16:08.102Z,74.27
2022-07-31T12:19:05.624Z,73.93
2022-07-31T12:22:14.877Z,72.25
2022-07-31T12:25:12.685Z,71.54
2022-07-31T12:28:10.241Z,72.48
2022-07-31T12:31:07.203Z,71.62
2022-07-31T12:34:05.022Z,72.22
2022-07-31T12:37:05.844Z,70.33
2022-07-31T12:40:03.611Z,68.23
2022-07-31T12:43:01.450Z,69.94
2022-07-31T12:46:00.424Z,68.24
2022-07-31T12:48:57.402Z,67.01
2022-07-31T12:51:54.614Z,66.96
2022-07-31T12:54:51.637Z,68.38
2022-07-31T12:57:51.888Z,69.34
2022-07-31T13:00:49.511Z,68.52
2022-07-31T13:03:47.220Z,70.18
2022-07-31T13:06:44.701Z,67.92
2022-07-31T13:09:41.859Z,67.84
2022-07-31T13:12:59.507Z,68.09
2022-07-31T13:15:57.414Z,67.86
2022-07-31T13:18:54.243Z,66.58
2022-07-31T13:21:51.448Z,65.51
2022-07-31T13:24:50.318Z,63.98
2022-07-31T13:27:47.427Z,65.14
2022-07-31T13:30:44.356Z,66.35
2022-07-31T13:33:41.299Z,66.68
2022-07-31T13:36:38.754Z,69.08
2022-07-31T13:39:36.757Z,73.79
2022-07-31T13:42:33.231Z,74.74
2022-07-31T13:45:30.606Z,76.46
2022-07-31T13:48:27.680Z,78.03
2022-07-31T13:51:28.563Z,80.94
2022-07-31T13:54:27.699Z,83.25
2022-07-31T13:57:24.767Z,83.54
2022-07-31T14:00:24.492Z,86.05
2022-07-31T14:03:21.675Z,87.66
2022-07-31T14:06:20.335Z,93.64
2022-07-31T14:09:19.438Z,95.91
2022-07-31T14:12:16.437Z,94.54
2022-07-31T14:15:13.484Z,94.45
2022-07-31T14:18:10.651Z,95.66
2022-07-31T14:21:08.094Z,96.80
2022-07-31T14:24:05.776Z,98.84
2022-07-31T14:27:02.633Z,100.00
2022-07-31T14:29:59.545Z,100.00
2022-07-31T14:32:56.558Z,100.00
2022-07-31T14:35:54.709Z,100.00
2022-07-31T14:38:52.685Z,100.00
2022-07-31T14:41:49.715Z,100.00
2022-07-31T14:44:46.642Z,100.00
2022-07-31T14:47:46.333Z,100.00
2022-07-31T14:50:43.877Z,100.00
2022-07-31T14:53:41.568Z,100.00
2022-07-31T14:57:00.151Z,100.00
2022-07-31T14:59:55.415Z,100.00
2022-07-31T15:02:52.395Z,100.00
2022-07-31T15:06:51.060Z,100.00
2022-07-31T15:09:06.733Z,100.00
2022-07-31T15:12:03.937Z,100.00
2022-07-31T15:15:01.620Z,100.00
2022-07-31T15:17:58.741Z,100.00
2022-07-31T15:20:55.911Z,100.00
2022-07-31T15:23:53.556Z,100.00
2022-07-31T15:26:50.526Z,100.00
2022-07-31T15:30:05.602Z,100.00
2022-07-31T15:33:04.706Z,100.00
2022-07-31T15:36:02.728Z,100.00
2022-07-31T15:38:59.220Z,100.00
2022-07-31T15:41:58.157Z,100.00
2022-07-31T15:44:55.584Z,100.00
2022-07-31T15:47:52.315Z,100.00
2022-07-31T15:50:49.803Z,100.00
2022-07-31T15:53:47.044Z,100.00
2022-07-31T15:56:47.112Z,100.00
2022-07-31T15:59:44.555Z,100.00
2022-07-31T16:02:42.544Z,100.00
2022-07-31T16:05:39.634Z,100.00
2022-07-31T16:08:37.496Z,100.00
2022-07-31T16:12:04.644Z,100.00
2022-07-31T16:14:51.457Z,100.00
2022-07-31T16:17:50.650Z,100.00
2022-07-31T16:20:47.375Z,100.00
2022-07-31T16:23:45.463Z,100.00
2022-07-31T16:26:42.498Z,100.00
2022-07-31T16:29:58.729Z,100.00
2022-07-31T16:32:56.842Z,100.00
2022-07-31T16:35:53.648Z,100.00
2022-07-31T16:39:17.731Z,100.00
2022-07-31T16:42:08.939Z,100.00
2022-07-31T16:45:06.132Z,100.00
2022-07-31T16:48:04.314Z,100.00
2022-07-31T16:51:01.991Z,100.00
2022-07-31T16:54:13.908Z,100.00
2022-07-31T16:57:14.079Z,100.00
2022-07-31T17:00:12.424Z,100.00
2022-07-31T17:03:59.481Z,100.00
2022-07-31T17:06:36.152Z,100.00
2022-07-31T17:09:34.534Z,100.00
2022-07-31T17:12:31.454Z,100.00
2022-07-31T17:15:28.542Z,100.00
2022-07-31T17:18:26.078Z,100.00
2022-07-31T17:21:24.704Z,100.00
2022-07-31T17:24:27.664Z,100.00
2022-07-31T17:27:25.663Z,100.00
2022-07-31T17:30:22.744Z,100.00
2022-07-31T17:33:19.645Z,100.00
2022-07-31T17:36:16.687Z,100.00
2022-07-31T17:39:13.820Z,100.00
2022-07-31T17:42:10.744Z,100.00
2022-07-31T17:45:08.014Z,100.00
2022-07-31T17:48:08.494Z,100.00
2022-07-31T17:51:05.979Z,100.00
2022-07-31T17:54:03.698Z,100.00
2022-07-31T17:57:00.965Z,100.00
2022-07-31T17:59:58.122Z,100.00
2022-07-31T18:02:55.856Z,100.00
2022-07-31T18:05:52.935Z,100.00
2022-07-31T18:08:49.929Z,100.00
2022-07-31T18:11:47.193Z,100.00
2022-07-31T18:14:46.381Z,100.00
2022-07-31T18:17:49.937Z,100.00
2022-07-31T18:20:47.065Z,100.00
2022-07-31T18:23:47.609Z,100.00
2022-07-31T18:26:45.095Z,100.00
2022-07-31T18:29:42.691Z,100.00
2022-07-31T18:32:54.080Z,100.00
2022-07-31T18:35:51.915Z,100.00
2022-07-31T18:38:48.871Z,100.00
2022-07-31T18:41:48.980Z,100.00
2022-07-31T18:44:46.777Z,100.00
2022-07-31T18:47:44.083Z,100.00
2022-07-31T18:51:02.242Z,100.00
2022-07-31T18:53:59.110Z,100.00
2022-07-31T18:56:56.890Z,100.00
2022-07-31T18:59:56.469Z,100.00
2022-07-31T19:02:53.959Z,100.00
2022-07-31T19:05:53.054Z,100.00
2022-07-31T19:08:52.253Z,100.00
2022-07-31T19:11:50.742Z,100.00
2022-07-31T19:14:48.617Z,100.00
2022-07-31T19:17:45.648Z,100.00
2022-07-31T19:20:58.974Z,100.00
2022-07-31T19:24:02.658Z,100.00
2022-07-31T19:26:59.775Z,100.00
2022-07-31T19:29:56.671Z,100.00
2022-07-31T19:32:54.462Z,100.00
2022-07-31T19:35:58.361Z,100.00
2022-07-31T19:38:57.658Z,100.00
2022-07-31T19:42:11.350Z,100.00
2022-07-31T19:45:09.953Z,100.00
2022-07-31T19:48:06.803Z,100.00
2022-07-31T19:51:04.181Z,100.00
2022-07-31T19:54:01.841Z,100.00
2022-07-31T19:56:58.897Z,100.00
2022-07-31T19:59:56.137Z,100.00
2022-07-31T20:02:53.921Z,100.00
2022-07-31T20:05:50.835Z,100.00
2022-07-31T20:08:49.119Z,100.00
2022-07-31T20:11:47.193Z,100.00
2022-07-31T20:14:44.884Z,100.00
2022-07-31T20:17:41.925Z,100.00
2022-07-31T20:20:39.377Z,100.00
2022-07-31T20:23:41.678Z,100.00
2022-07-31T20:26:39.136Z,100.00
2022-07-31T20:29:36.889Z,100.00
2022-07-31T20:32:33.917Z,100.00
2022-07-31T20:35:32.912Z,100.00
2022-07-31T20:38:45.422Z,100.00
2022-07-31T20:41:42.837Z,100.00
2022-07-31T20:44:41.513Z,100.00
2022-07-31T20:47:39.046Z,100.00
2022-07-31T20:50:36.171Z,100.00
2022-07-31T20:53:33.418Z,100.00
2022-07-31T20:56:32.177Z,100.00
2022-07-31T20:59:30.616Z,100.00
2022-07-31T21:02:27.730Z,100.00
2022-07-31T21:05:29.288Z,100.00
2022-07-31T21:08:26.694Z,100.00
2022-07-31T21:11:31.585Z,100.00
2022-07-31T21:14:28.951Z,100.00
2022-07-31T21:17:27.247Z,100.00
2022-07-31T21:20:29.154Z,100.00
2022-07-31T21:23:41.930Z,100.00
2022-07-31T21:26:38.863Z,100.00
2022-07-31T21:29:36.148Z,100.00
2022-07-31T21:32:33.039Z,100.00
2022-07-31T21:35:37.286Z,100.00
2022-07-31T21:38:35.660Z,100.00
2022-07-31T21:41:33.306Z,100.00
2022-07-31T21:44:30.901Z,100.00
2022-07-31T21:47:29.006Z,100.00
2022-07-31T21:50:46.611Z,100.00
2022-07-31T21:53:44.296Z,100.00
2022-07-31T21:56:42.179Z,100.00
2022-07-31T21:59:38.851Z,100.00
2022-07-31T22:02:35.629Z,100.00
2022-07-31T22:05:51.773Z,100.00
2022-07-31T22:08:48.919Z,100.00
2022-07-31T22:12:00.047Z,100.00
2022-07-31T22:14:59.240Z,100.00
2022-07-31T22:17:56.685Z,100.00
2022-07-31T22:20:54.134Z,100.00
2022-07-31T22:23:51.036Z,100.00
2022-07-31T22:27:08.777Z,100.00
2022-07-31T22:30:06.649Z,100.00
2022-07-31T22:33:05.015Z,100.00
2022-07-31T22:36:06.963Z,100.00
2022-07-31T22:39:13.532Z,100.00
2022-07-31T22:42:10.971Z,100.00
2022-07-31T22:45:08.280Z,100.00
2022-07-31T22:48:06.002Z,100.00
2022-07-31T22:51:04.267Z,100.00
2022-07-31T22:54:00.981Z,100.00
2022-07-31T22:56:58.110Z,100.00
2022-07-31T22:59:55.035Z,100.00
2022-07-31T23:02:51.984Z,100.00
2022-07-31T23:09:05.908Z,100.00
2022-07-31T23:12:03.150Z,100.00
2022-07-31T23:15:01.508Z,100.00
2022-07-31T23:17:59.635Z,100.00
2022-07-31T23:20:57.116Z,100.00
2022-07-31T23:23:54.277Z,100.00
2022-07-31T23:26:51.237Z,100.00
2022-07-31T23:29:49.161Z,100.00
2022-07-31T23:32:46.136Z,100.00
2022-07-31T23:35:43.047Z,100.00
2022-07-31T23:38:39.965Z,100.00
2022-07-31T23:41:55.728Z,100.00
2022-07-31T23:44:52.851Z,100.00
2022-07-31T23:47:50.064Z,100.00
2022-07-31T23:50:47.104Z,100.00
2022-07-31T23:53:43.981Z,100.00
2022-07-31T23:56:43.060Z,100.00
2022-07-31T23:59:39.946Z,100.00
